Terminal Aerodrome Forecast
Issued by NWS

Home | Current Version | Previous Version | Graphics & Text | Print | Product List | Glossary On
Versions: 1 2 3 4 5 6 7 8 9 10 11 12 13 14 15 16 17
442
FTUS43 KBIS 242049 AAA
TAFJMS
TAF AMD
KJMS 242049Z 2421/2518 28018G28KT P6SM BKN050
     FM250200 28013G20KT P6SM BKN040
     FM250400 29008KT P6SM SCT040
     FM250700 30010G17KT P6SM BKN015
     FM251700 31013G20KT P6SM BKN035=

USA.gov is the U.S. government's official web portal to all federal, state and local government web resources and services.